Time;durP1;ratioP1;P1;durP2;ratioP2;P2;SDS_P1;SDS_P2;PMS_P1;PMS_P2;Temp;Humidity;BMP_temperature;BMP_pressure;BME280_temperature;BME280_humidity;BME280_pressure;Samples;Min_cycle;Max_cycle;Signal;HPM_P1;HPM_P2
2021/08/13 00:01:26;;;;;;;17.10;9.83;;;19.50;99.90;;;;;;4998264;28;20289;-58
2021/08/13 00:03:52;;;;;;;11.53;9.70;;;19.40;99.90;;;;;;4992869;28;20217;-59
2021/08/13 00:06:17;;;;;;;13.03;9.07;;;19.40;99.90;;;;;;4993464;28;20177;-59
2021/08/13 00:08:43;;;;;;;19.17;10.20;;;19.40;99.90;;;;;;4984228;28;20692;-58
2021/08/13 00:11:09;;;;;;;13.87;9.80;;;19.40;99.90;;;;;;4998938;28;20209;-58
2021/08/13 00:13:34;;;;;;;11.97;10.00;;;19.30;99.90;;;;;;4994256;28;20276;-58
2021/08/13 00:16:00;;;;;;;12.33;9.20;;;19.30;99.90;;;;;;4990525;28;20646;-59
2021/08/13 00:18:26;;;;;;;14.20;9.70;;;19.30;99.90;;;;;;4988973;28;20303;-59
2021/08/13 00:20:51;;;;;;;19.57;9.40;;;19.30;99.90;;;;;;4990362;28;20193;-59
2021/08/13 00:23:17;;;;;;;13.90;9.53;;;19.20;99.90;;;;;;4996264;28;20272;-59
2021/08/13 00:25:43;;;;;;;10.30;8.90;;;19.20;99.90;;;;;;4987625;28;20825;-59
2021/08/13 00:28:08;;;;;;;17.53;9.37;;;19.20;99.90;;;;;;4991240;28;20265;-59
2021/08/13 00:30:34;;;;;;;16.47;9.07;;;19.20;99.90;;;;;;4992209;28;20182;-59
2021/08/13 00:33:00;;;;;;;12.33;9.17;;;19.20;99.90;;;;;;4989106;28;20727;-59
2021/08/13 00:35:25;;;;;;;16.20;9.50;;;19.20;99.90;;;;;;4990872;28;20192;-58
2021/08/13 00:37:51;;;;;;;17.80;10.30;;;19.20;99.90;;;;;;4991511;28;20189;-59
2021/08/13 00:40:17;;;;;;;17.07;9.77;;;19.20;99.90;;;;;;4989888;28;20229;-58
2021/08/13 00:42:43;;;;;;;14.93;9.10;;;19.20;99.90;;;;;;4990662;28;20193;-59
2021/08/13 00:45:09;;;;;;;13.50;9.57;;;19.20;99.90;;;;;;4992515;28;20177;-58
2021/08/13 00:47:35;;;;;;;14.50;9.50;;;19.20;99.90;;;;;;4996207;28;20169;-59
2021/08/13 00:50:01;;;;;;;13.87;9.20;;;19.20;99.90;;;;;;4991922;28;20925;-59
2021/08/13 00:52:27;;;;;;;21.57;10.50;;;19.20;99.90;;;;;;4990406;28;20728;-59
2021/08/13 00:54:53;;;;;;;13.50;9.27;;;19.20;99.90;;;;;;4991354;28;20468;-59
2021/08/13 00:57:19;;;;;;;15.33;9.90;;;19.20;99.90;;;;;;4991062;28;20429;-59
2021/08/13 00:59:45;;;;;;;14.07;9.40;;;19.20;99.90;;;;;;4997863;28;20463;-58
2021/08/13 01:02:11;;;;;;;13.23;8.67;;;19.20;99.90;;;;;;5004059;28;20170;-58
2021/08/13 01:04:38;;;;;;;17.30;10.03;;;19.20;99.90;;;;;;4988733;28;20909;-59
2021/08/13 01:07:05;;;;;;;13.57;9.10;;;19.20;99.90;;;;;;5002980;28;20176;-59
2021/08/13 01:09:31;;;;;;;14.47;8.93;;;19.20;99.90;;;;;;4981767;28;20801;-59
2021/08/13 01:12:21;;;;;;;14.60;9.70;;;19.10;99.90;;;;;;4990966;28;20474;-59
2021/08/13 01:15:07;;;;;;;13.57;8.90;;;19.10;99.90;;;;;;4989519;28;20185;-60
2021/08/13 01:17:38;;;;;;;12.47;9.73;;;19.10;99.90;;;;;;4989337;28;20408;-59
2021/08/13 01:20:26;;;;;;;24.40;10.40;;;19.10;99.90;;;;;;4990090;28;20452;-58
2021/08/13 01:22:58;;;;;;;13.07;8.77;;;19.10;99.90;;;;;;4987428;28;20459;-59
2021/08/13 01:25:31;;;;;;;9.80;8.27;;;19.10;99.90;;;;;;4996786;28;20428;-59
2021/08/13 01:28:03;;;;;;;10.77;8.80;;;19.10;99.90;;;;;;4988293;28;20502;-59
2021/08/13 01:30:32;;;;;;;14.30;9.37;;;19.10;99.90;;;;;;4988916;28;20867;-60
2021/08/13 01:33:12;;;;;;;12.47;8.87;;;19.00;99.90;;;;;;4990405;28;20530;-59
2021/08/13 01:35:42;;;;;;;15.60;9.60;;;19.00;99.90;;;;;;4989940;28;20420;-58
2021/08/13 01:38:34;;;;;;;11.87;9.37;;;19.00;99.90;;;;;;4994005;28;20455;-59
2021/08/13 01:41:03;;;;;;;11.73;9.17;;;18.90;99.90;;;;;;5001180;28;20435;-58
2021/08/13 01:43:31;;;;;;;16.53;9.93;;;18.90;99.90;;;;;;4987401;28;20980;-60
2021/08/13 01:45:58;;;;;;;14.63;9.83;;;18.80;99.90;;;;;;4988129;28;20444;-58
2021/08/13 01:48:26;;;;;;;14.13;9.83;;;18.80;99.90;;;;;;4981808;28;20975;-59
2021/08/13 01:50:52;;;;;;;17.50;9.97;;;18.80;99.90;;;;;;4990305;28;20893;-61
2021/08/13 01:53:20;;;;;;;14.60;10.07;;;18.80;99.90;;;;;;4989449;28;20781;-59
2021/08/13 01:55:46;;;;;;;11.83;9.13;;;18.80;99.90;;;;;;4988690;28;20432;-59
2021/08/13 01:58:14;;;;;;;16.03;9.03;;;18.80;99.90;;;;;;4988565;28;20436;-59
2021/08/13 02:00:41;;;;;;;13.20;10.20;;;18.70;99.90;;;;;;4990542;28;20468;-59
2021/08/13 02:03:08;;;;;;;15.13;9.10;;;18.70;99.90;;;;;;4990503;28;20478;-59
2021/08/13 02:05:37;;;;;;;21.30;9.50;;;18.70;99.90;;;;;;4986725;28;20439;-59
2021/08/13 02:08:05;;;;;;;13.83;8.77;;;18.70;99.90;;;;;;4990111;28;20428;-58
2021/08/13 02:10:34;;;;;;;13.67;9.03;;;18.70;99.90;;;;;;4989750;28;20491;-59
2021/08/13 02:12:59;;;;;;;13.53;8.63;;;18.70;99.90;;;;;;4989493;28;20984;-59
2021/08/13 02:15:25;;;;;;;15.43;9.60;;;18.60;99.90;;;;;;4988819;28;20428;-59
2021/08/13 02:18:08;;;;;;;11.03;8.87;;;18.60;99.90;;;;;;4989943;28;20255;-58
2021/08/13 02:20:38;;;;;;;12.20;8.77;;;18.60;99.90;;;;;;4989675;28;20284;-58
2021/08/13 02:23:07;;;;;;;11.53;8.60;;;18.60;99.90;;;;;;4987119;28;20451;-59
2021/08/13 02:25:33;;;;;;;14.90;9.20;;;18.50;99.90;;;;;;4986663;28;20433;-58
2021/08/13 02:27:59;;;;;;;13.73;9.23;;;18.60;99.90;;;;;;4983589;28;21933;-58
2021/08/13 02:30:24;;;;;;;12.00;9.87;;;18.60;99.90;;;;;;4989087;28;20648;-59
2021/08/13 02:32:50;;;;;;;13.23;9.27;;;18.60;99.90;;;;;;4989507;28;20201;-59
2021/08/13 02:35:16;;;;;;;11.17;8.90;;;18.60;99.90;;;;;;4988868;28;20274;-58
2021/08/13 02:37:52;;;;;;;13.13;10.60;;;18.60;99.90;;;;;;4989274;28;20538;-58
2021/08/13 02:40:33;;;;;;;16.17;9.77;;;18.60;99.90;;;;;;4989547;28;20295;-58
2021/08/13 02:43:22;;;;;;;11.33;8.67;;;18.50;99.90;;;;;;4986953;28;20599;-59
2021/08/13 02:45:50;;;;;;;13.67;9.50;;;18.40;99.90;;;;;;4998151;28;20425;-59
2021/08/13 02:48:16;;;;;;;12.80;9.40;;;18.30;99.90;;;;;;4988965;28;20444;-59
2021/08/13 02:50:43;;;;;;;12.27;8.90;;;18.30;99.90;;;;;;4988554;28;20462;-58
2021/08/13 02:53:13;;;;;;;21.73;8.90;;;18.30;99.90;;;;;;4988973;28;20827;-58
2021/08/13 02:55:47;;;;;;;13.70;9.93;;;18.20;99.90;;;;;;4990141;28;21034;-59
2021/08/13 02:58:17;;;;;;;13.27;9.23;;;18.20;99.90;;;;;;4993371;28;20455;-59
2021/08/13 03:00:44;;;;;;;13.10;9.10;;;18.20;99.90;;;;;;4992152;28;20460;-59
2021/08/13 03:03:12;;;;;;;14.30;9.93;;;18.20;99.90;;;;;;4987449;28;20463;-59
2021/08/13 03:05:46;;;;;;;14.53;8.93;;;18.20;99.90;;;;;;4995939;28;20755;-59
2021/08/13 03:08:12;;;;;;;15.77;9.87;;;18.10;99.90;;;;;;4981902;28;20412;-59
2021/08/13 03:10:39;;;;;;;14.30;9.33;;;18.10;99.90;;;;;;4988266;28;20512;-59
2021/08/13 03:13:08;;;;;;;11.33;8.07;;;18.10;99.90;;;;;;4989144;28;20689;-59
2021/08/13 03:15:34;;;;;;;10.93;8.30;;;18.00;99.90;;;;;;4989723;28;20432;-59
2021/08/13 03:18:02;;;;;;;18.00;9.00;;;18.00;99.90;;;;;;4976535;28;20424;-59
2021/08/13 03:20:28;;;;;;;13.67;9.50;;;18.00;99.90;;;;;;4988413;28;20988;-58
2021/08/13 03:22:54;;;;;;;19.40;10.20;;;17.90;99.90;;;;;;4989226;28;20539;-59
2021/08/13 03:25:20;;;;;;;17.23;10.43;;;17.90;99.90;;;;;;4994758;28;20187;-58
2021/08/13 03:27:46;;;;;;;19.83;10.40;;;17.90;99.90;;;;;;4992061;28;20209;-58
2021/08/13 03:30:12;;;;;;;15.13;9.60;;;17.90;99.90;;;;;;4988177;28;20459;-59
2021/08/13 03:32:39;;;;;;;12.90;9.97;;;17.90;99.90;;;;;;4988550;28;20708;-59
2021/08/13 03:35:05;;;;;;;13.37;10.03;;;17.80;99.90;;;;;;5029985;23;20506;-57
2021/08/13 03:37:31;;;;;;;20.50;9.90;;;17.80;99.90;;;;;;5008034;28;20459;-57
2021/08/13 03:39:57;;;;;;;18.00;9.60;;;17.80;99.90;;;;;;5020958;28;20991;-57
2021/08/13 03:42:23;;;;;;;13.97;9.93;;;17.80;99.90;;;;;;5007709;28;20173;-57
2021/08/13 03:44:49;;;;;;;12.97;9.03;;;17.70;99.90;;;;;;5005134;28;20451;-56
2021/08/13 03:47:15;;;;;;;12.77;9.30;;;17.70;99.90;;;;;;4996865;28;20432;-56
2021/08/13 03:49:41;;;;;;;16.57;10.73;;;17.70;99.90;;;;;;5001851;28;20240;-56
2021/08/13 03:52:06;;;;;;;12.03;9.83;;;17.60;99.90;;;;;;5005040;28;20192;-58
2021/08/13 03:54:32;;;;;;;14.43;9.13;;;17.60;99.90;;;;;;5009295;28;20207;-57
2021/08/13 03:56:58;;;;;;;15.90;9.77;;;17.60;99.90;;;;;;5007964;28;20176;-57
2021/08/13 03:59:23;;;;;;;14.67;10.07;;;17.70;99.90;;;;;;5008185;28;20458;-57
2021/08/13 04:01:49;;;;;;;14.40;9.80;;;17.70;99.90;;;;;;5005362;28;20176;-58
2021/08/13 04:04:15;;;;;;;14.00;9.13;;;17.70;99.90;;;;;;5009514;28;20196;-56
2021/08/13 04:06:40;;;;;;;13.37;9.17;;;17.70;99.90;;;;;;5007004;28;20169;-57
2021/08/13 04:09:06;;;;;;;15.80;10.60;;;17.70;99.90;;;;;;5009999;28;20176;-58
2021/08/13 04:11:31;;;;;;;13.00;9.80;;;17.70;99.90;;;;;;5009254;28;20314;-57
2021/08/13 04:14:00;;;;;;;14.97;9.43;;;17.70;99.90;;;;;;5009650;28;20211;-58
2021/08/13 04:16:26;;;;;;;13.30;10.20;;;17.70;99.90;;;;;;4996675;28;20184;-57
2021/08/13 04:18:51;;;;;;;18.00;9.60;;;17.70;99.90;;;;;;5008557;28;20432;-58
2021/08/13 04:21:17;;;;;;;15.50;9.83;;;17.70;99.90;;;;;;5009424;28;20172;-57
2021/08/13 04:23:42;;;;;;;13.07;9.90;;;17.70;99.90;;;;;;5007176;28;20185;-56
2021/08/13 04:26:08;;;;;;;14.43;10.03;;;17.70;99.90;;;;;;5009976;28;20195;-58
2021/08/13 04:28:34;;;;;;;14.50;9.53;;;17.70;99.90;;;;;;5010006;28;20604;-58
2021/08/13 04:31:00;;;;;;;12.80;9.27;;;17.70;99.90;;;;;;5009221;28;20180;-57
2021/08/13 04:33:25;;;;;;;13.73;9.83;;;17.70;99.90;;;;;;5001749;28;20185;-58
2021/08/13 04:35:51;;;;;;;21.50;9.80;;;17.70;99.90;;;;;;5002774;28;20252;-57
2021/08/13 04:38:17;;;;;;;12.93;10.20;;;17.70;99.90;;;;;;5008890;28;20509;-56
2021/08/13 04:40:45;;;;;;;17.13;10.27;;;17.70;99.90;;;;;;5010517;28;20205;-57
2021/08/13 04:43:10;;;;;;;13.87;9.07;;;17.70;99.90;;;;;;4994837;28;20255;-57
2021/08/13 04:45:38;;;;;;;14.50;10.33;;;17.70;99.90;;;;;;4990475;28;20498;-57
2021/08/13 04:48:04;;;;;;;14.83;10.27;;;17.70;99.90;;;;;;4999511;28;20416;-57
2021/08/13 04:50:30;;;;;;;19.13;10.30;;;17.70;99.90;;;;;;4999187;28;20947;-56
2021/08/13 04:52:56;;;;;;;16.03;9.80;;;17.70;99.90;;;;;;5010423;28;20207;-57
2021/08/13 04:55:23;;;;;;;20.07;10.57;;;17.70;99.90;;;;;;5005018;28;20282;-57
2021/08/13 04:57:50;;;;;;;16.43;8.87;;;17.60;99.90;;;;;;5006682;28;20184;-57
2021/08/13 05:00:17;;;;;;;15.73;9.80;;;17.60;99.90;;;;;;5009308;28;20463;-58
2021/08/13 05:02:43;;;;;;;17.43;9.80;;;17.60;99.90;;;;;;5001524;28;20459;-58
2021/08/13 05:05:09;;;;;;;12.00;9.47;;;17.60;99.90;;;;;;5003560;28;20447;-57
2021/08/13 05:07:35;;;;;;;16.80;10.60;;;17.60;99.90;;;;;;4999602;28;20666;-57
2021/08/13 05:10:07;;;;;;;13.97;9.80;;;17.60;99.90;;;;;;5001636;28;20437;-55
2021/08/13 05:12:32;;;;;;;17.73;9.47;;;17.60;99.90;;;;;;5002156;28;20180;-55
2021/08/13 05:14:58;;;;;;;22.53;10.73;;;17.70;99.90;;;;;;5002344;28;20458;-53
2021/08/13 05:17:23;;;;;;;20.53;9.20;;;17.80;99.90;;;;;;4996872;28;20558;-55
2021/08/13 05:19:49;;;;;;;16.93;9.63;;;17.90;99.90;;;;;;5001100;28;20665;-55
2021/08/13 05:22:15;;;;;;;16.63;9.20;;;17.90;99.90;;;;;;4999181;28;20176;-56
2021/08/13 05:24:40;;;;;;;13.20;9.10;;;18.00;99.90;;;;;;5001782;28;20188;-55
2021/08/13 05:27:06;;;;;;;13.63;8.93;;;18.00;99.90;;;;;;5004649;28;20234;-55
2021/08/13 05:29:32;;;;;;;14.13;9.40;;;18.00;99.90;;;;;;4997916;28;20180;-55
2021/08/13 05:31:57;;;;;;;15.07;9.83;;;18.00;99.90;;;;;;4998742;28;20185;-55
2021/08/13 05:34:23;;;;;;;13.07;9.83;;;18.00;99.90;;;;;;4999984;28;20990;-55
2021/08/13 05:36:48;;;;;;;14.93;9.70;;;18.10;99.90;;;;;;5000031;28;20180;-55
2021/08/13 05:39:14;;;;;;;17.17;9.57;;;18.10;99.90;;;;;;5000168;28;20242;-57
2021/08/13 05:41:40;;;;;;;13.90;9.53;;;18.20;99.90;;;;;;4998242;28;20191;-55
2021/08/13 05:44:08;;;;;;;14.50;9.07;;;18.30;99.90;;;;;;5001733;28;22063;-54
2021/08/13 05:46:34;;;;;;;14.13;9.00;;;18.30;99.90;;;;;;4999875;28;20184;-54
2021/08/13 05:49:00;;;;;;;17.23;9.30;;;18.30;99.90;;;;;;4998990;28;20946;-55
2021/08/13 05:51:26;;;;;;;16.63;9.63;;;18.40;99.90;;;;;;4999076;28;20507;-54
2021/08/13 05:53:52;;;;;;;14.43;8.53;;;18.40;99.90;;;;;;4998828;28;20853;-55
2021/08/13 05:56:18;;;;;;;16.70;9.87;;;18.50;99.90;;;;;;5005841;28;20450;-53
2021/08/13 05:58:45;;;;;;;13.40;8.90;;;18.50;99.90;;;;;;5002435;28;21023;-55
2021/08/13 06:01:10;;;;;;;16.90;9.57;;;18.50;99.90;;;;;;5004886;28;20655;-54
2021/08/13 06:03:36;;;;;;;14.93;9.20;;;18.50;99.90;;;;;;4998264;28;20450;-54
2021/08/13 06:06:02;;;;;;;13.20;8.93;;;18.60;99.90;;;;;;4999036;28;20196;-54
2021/08/13 06:08:28;;;;;;;14.60;9.73;;;18.60;99.90;;;;;;4995748;28;20263;-56
2021/08/13 06:10:53;;;;;;;12.47;9.30;;;18.70;99.90;;;;;;5001120;28;20191;-55
2021/08/13 06:13:19;;;;;;;14.03;9.10;;;18.80;99.90;;;;;;4998074;28;20204;-56
2021/08/13 06:15:45;;;;;;;12.43;9.40;;;18.90;99.90;;;;;;5005062;28;20181;-54
2021/08/13 06:18:11;;;;;;;17.33;10.33;;;19.00;99.90;;;;;;4997625;28;20185;-54
2021/08/13 06:20:37;;;;;;;20.00;13.00;;;19.10;99.90;;;;;;4999784;28;20467;-54
2021/08/13 06:23:03;;;;;;;26.27;17.53;;;19.20;99.90;;;;;;4995126;28;20184;-55
2021/08/13 06:25:29;;;;;;;22.37;13.10;;;19.30;99.90;;;;;;4990996;28;20848;-54
2021/08/13 06:27:54;;;;;;;17.47;10.37;;;19.50;99.90;;;;;;4998292;28;20180;-54
2021/08/13 06:30:22;;;;;;;13.30;9.67;;;19.70;99.90;;;;;;4989674;28;20185;-56
2021/08/13 06:32:53;;;;;;;16.77;10.33;;;19.80;99.90;;;;;;4997076;28;20593;-55
2021/08/13 06:35:18;;;;;;;13.77;9.37;;;19.80;99.90;;;;;;4993683;28;20474;-58
2021/08/13 06:37:44;;;;;;;14.57;9.10;;;19.80;99.90;;;;;;4995512;28;20462;-56
2021/08/13 06:40:10;;;;;;;13.93;8.80;;;19.90;99.90;;;;;;4995150;28;20287;-56
2021/08/13 06:42:36;;;;;;;14.60;9.10;;;19.90;99.90;;;;;;4996736;28;20183;-56
2021/08/13 06:45:01;;;;;;;12.57;9.40;;;19.90;99.90;;;;;;4996848;28;20455;-56
2021/08/13 06:47:27;;;;;;;12.50;7.67;;;19.90;99.90;;;;;;4993790;28;22012;-59
2021/08/13 06:49:53;;;;;;;13.67;8.27;;;20.00;99.90;;;;;;5002847;28;20183;-60
2021/08/13 06:52:18;;;;;;;12.03;7.50;;;20.10;99.90;;;;;;5008968;28;20229;-58
2021/08/13 06:54:44;;;;;;;11.83;7.00;;;20.20;99.90;;;;;;5012849;28;20579;-59
2021/08/13 06:57:09;;;;;;;10.80;6.90;;;20.30;99.90;;;;;;5006600;28;20172;-58
2021/08/13 06:59:35;;;;;;;10.60;6.80;;;20.50;99.90;;;;;;5005051;28;20204;-59
2021/08/13 07:02:01;;;;;;;13.80;7.77;;;20.60;99.90;;;;;;5004896;28;20263;-59
2021/08/13 07:04:26;;;;;;;13.73;6.67;;;20.70;99.90;;;;;;5004851;28;20212;-59
2021/08/13 07:06:52;;;;;;;12.97;6.57;;;20.80;99.90;;;;;;4999195;28;20179;-59
2021/08/13 07:09:18;;;;;;;10.30;6.70;;;20.80;99.90;;;;;;4997765;28;20255;-59
2021/08/13 07:11:43;;;;;;;10.83;6.50;;;20.90;99.90;;;;;;4996781;28;20330;-60
2021/08/13 07:14:09;;;;;;;10.53;6.63;;;21.00;99.90;;;;;;4996114;28;20346;-58
2021/08/13 07:16:35;;;;;;;15.20;6.83;;;21.10;99.90;;;;;;4996515;28;20180;-60
2021/08/13 07:19:00;;;;;;;11.20;6.57;;;21.20;99.90;;;;;;4997127;28;20626;-59
2021/08/13 07:21:26;;;;;;;14.93;5.73;;;21.30;99.90;;;;;;4999950;28;20200;-59
2021/08/13 07:23:51;;;;;;;11.13;5.33;;;21.40;99.90;;;;;;5004180;28;20200;-59
2021/08/13 07:26:18;;;;;;;8.63;6.00;;;21.50;99.90;;;;;;5008064;28;20636;-60
2021/08/13 07:28:44;;;;;;;10.03;5.30;;;21.70;99.90;;;;;;5014537;28;20644;-59
2021/08/13 07:31:09;;;;;;;10.40;5.10;;;21.80;99.90;;;;;;5009131;28;20474;-59
2021/08/13 07:33:35;;;;;;;11.60;5.37;;;22.00;99.90;;;;;;5005883;28;20296;-60
2021/08/13 07:36:00;;;;;;;6.97;4.67;;;22.10;99.90;;;;;;5014071;28;20179;-59
2021/08/13 07:38:26;;;;;;;14.07;5.00;;;22.30;99.90;;;;;;5002922;28;20265;-59
2021/08/13 07:40:52;;;;;;;13.07;5.83;;;22.40;98.40;;;;;;5008428;28;20279;-58
2021/08/13 07:43:17;;;;;;;9.30;5.10;;;22.50;98.00;;;;;;5010970;28;20164;-60
2021/08/13 07:45:43;;;;;;;10.47;4.60;;;22.60;98.60;;;;;;5008217;28;20544;-59
2021/08/13 07:48:08;;;;;;;7.40;5.07;;;22.70;97.50;;;;;;5002341;28;20255;-59
2021/08/13 07:50:35;;;;;;;10.70;4.43;;;22.80;94.80;;;;;;5002245;28;20756;-57
2021/08/13 07:53:01;;;;;;;8.90;4.13;;;22.90;92.80;;;;;;5002145;28;20180;-59
2021/08/13 07:55:26;;;;;;;14.80;5.03;;;22.90;93.10;;;;;;5000051;28;20822;-60
2021/08/13 07:57:52;;;;;;;10.27;4.80;;;23.00;92.70;;;;;;5000776;28;20180;-60
2021/08/13 08:00:18;;;;;;;10.30;4.70;;;23.10;91.00;;;;;;4994732;28;20228;-60
2021/08/13 08:02:44;;;;;;;13.67;4.60;;;23.10;90.90;;;;;;5001973;28;21198;-61
2021/08/13 08:05:10;;;;;;;9.37;5.07;;;23.00;92.60;;;;;;5000780;28;20680;-59
2021/08/13 08:07:36;;;;;;;9.50;4.00;;;23.10;91.50;;;;;;4998677;28;20264;-59
2021/08/13 08:10:03;;;;;;;13.83;4.80;;;23.20;91.00;;;;;;5000486;28;21476;-59
2021/08/13 08:12:28;;;;;;;5.27;3.90;;;23.30;91.10;;;;;;4998278;28;20463;-59
2021/08/13 08:14:54;;;;;;;10.93;4.77;;;23.40;87.30;;;;;;5005266;28;20483;-59
2021/08/13 08:17:20;;;;;;;9.53;4.60;;;23.50;85.60;;;;;;4998668;28;20296;-59
2021/08/13 08:19:45;;;;;;;9.27;4.30;;;23.50;84.00;;;;;;5003686;28;20199;-59
2021/08/13 08:22:11;;;;;;;7.83;4.10;;;23.60;86.30;;;;;;4991855;28;20264;-59
2021/08/13 08:24:37;;;;;;;8.73;4.90;;;23.70;84.40;;;;;;4999179;28;20228;-57
2021/08/13 08:27:03;;;;;;;11.47;4.03;;;23.70;82.50;;;;;;5002658;28;20275;-58
2021/08/13 08:29:29;;;;;;;14.00;4.87;;;23.80;79.60;;;;;;4988646;28;20289;-59
2021/08/13 08:31:54;;;;;;;6.43;4.63;;;23.80;81.30;;;;;;4997672;28;20534;-59
2021/08/13 08:34:20;;;;;;;8.40;3.67;;;23.90;80.60;;;;;;4997097;28;20212;-60
2021/08/13 08:36:46;;;;;;;6.40;4.17;;;24.00;82.10;;;;;;5003780;28;20258;-58
2021/08/13 08:39:11;;;;;;;10.70;3.73;;;24.00;80.10;;;;;;5001398;28;20222;-57
2021/08/13 08:41:37;;;;;;;6.50;3.90;;;24.10;75.80;;;;;;4992353;28;20181;-58
2021/08/13 08:44:03;;;;;;;7.23;3.70;;;24.10;76.60;;;;;;4997252;28;20203;-58
2021/08/13 08:46:31;;;;;;;9.93;4.33;;;24.20;75.60;;;;;;5000001;28;20187;-61
2021/08/13 08:48:58;;;;;;;5.93;3.90;;;24.30;75.50;;;;;;4992025;28;20307;-58
2021/08/13 08:51:25;;;;;;;9.37;3.80;;;24.50;76.70;;;;;;4990352;28;20450;-59
2021/08/13 08:53:54;;;;;;;8.73;3.83;;;24.60;76.20;;;;;;4989832;28;20542;-58
2021/08/13 08:56:23;;;;;;;9.37;4.17;;;24.60;72.60;;;;;;4991401;28;20423;-58
2021/08/13 08:58:50;;;;;;;12.37;5.27;;;24.60;72.30;;;;;;4995692;28;21187;-59
2021/08/13 09:01:15;;;;;;;6.43;3.33;;;24.70;72.30;;;;;;4992205;28;21124;-59
2021/08/13 09:03:45;;;;;;;9.33;3.40;;;24.80;69.30;;;;;;4998579;28;20466;-59
2021/08/13 09:06:11;;;;;;;8.83;3.70;;;24.90;66.10;;;;;;5006408;28;20168;-59
2021/08/13 09:08:38;;;;;;;4.43;3.13;;;25.00;64.40;;;;;;5007214;28;20447;-59
2021/08/13 09:11:04;;;;;;;7.23;3.47;;;25.10;64.00;;;;;;5005378;28;20474;-59
2021/08/13 09:13:33;;;;;;;7.10;4.10;;;25.20;63.60;;;;;;5005673;28;20449;-58
2021/08/13 09:16:10;;;;;;;7.60;3.40;;;25.30;62.20;;;;;;5009322;28;20841;-59
2021/08/13 09:18:37;;;;;;;5.40;3.30;;;25.40;60.70;;;;;;5003462;28;20448;-62
2021/08/13 09:21:03;;;;;;;13.63;3.50;;;25.50;60.50;;;;;;5008365;28;20455;-59
2021/08/13 09:23:32;;;;;;;7.30;3.47;;;25.50;59.20;;;;;;5008701;28;20355;-58
2021/08/13 09:26:07;;;;;;;10.40;3.70;;;25.50;58.50;;;;;;5008179;28;21028;-59
2021/08/13 09:29:00;;;;;;;8.30;3.63;;;25.50;60.10;;;;;;5004362;28;20438;-59
2021/08/13 09:31:29;;;;;;;11.87;3.57;;;25.60;59.20;;;;;;5002590;28;20419;-59
2021/08/13 09:34:14;;;;;;;6.90;3.53;;;25.70;58.50;;;;;;5008673;28;20454;-60
2021/08/13 09:36:49;;;;;;;7.33;3.03;;;25.80;58.50;;;;;;5008483;28;20431;-59
2021/08/13 09:39:16;;;;;;;11.63;4.70;;;25.90;58.40;;;;;;5004600;28;20468;-59
2021/08/13 09:41:53;;;;;;;6.13;3.33;;;25.90;59.00;;;;;;5006585;28;20430;-58
2021/08/13 09:44:33;;;;;;;5.03;3.30;;;26.10;58.00;;;;;;5006976;28;20553;-60
2021/08/13 09:47:06;;;;;;;5.40;3.43;;;26.20;57.80;;;;;;5034912;23;20503;-58
2021/08/13 09:49:33;;;;;;;5.20;3.17;;;26.30;57.40;;;;;;5004170;28;20442;-59
2021/08/13 09:52:15;;;;;;;8.13;3.47;;;26.40;56.90;;;;;;4994213;28;20497;-60
2021/08/13 09:54:41;;;;;;;6.00;3.20;;;26.50;57.00;;;;;;4998665;28;20427;-59
2021/08/13 09:57:15;;;;;;;8.87;3.17;;;26.50;56.90;;;;;;5007131;28;20474;-60
2021/08/13 10:00:03;;;;;;;9.43;3.27;;;26.60;56.40;;;;;;4991484;28;21047;-58
2021/08/13 10:02:38;;;;;;;16.37;4.20;;;26.70;56.20;;;;;;4989507;28;20424;-60
2021/08/13 10:05:23;;;;;;;15.30;4.50;;;26.60;56.30;;;;;;4989707;28;20419;-60
2021/08/13 10:07:51;;;;;;;6.77;3.70;;;26.60;56.10;;;;;;4987745;28;20412;-59
2021/08/13 10:10:21;;;;;;;12.30;4.20;;;26.60;56.80;;;;;;4988568;28;20469;-59
2021/08/13 10:12:48;;;;;;;8.53;4.37;;;26.70;57.70;;;;;;4987648;28;20809;-59
2021/08/13 10:15:28;;;;;;;9.30;4.27;;;26.80;57.50;;;;;;4984285;28;20519;-60
2021/08/13 10:17:56;;;;;;;9.77;4.33;;;27.00;57.70;;;;;;4989049;28;20973;-59
2021/08/13 10:20:27;;;;;;;7.23;3.90;;;27.20;57.70;;;;;;4989416;28;20494;-59
2021/08/13 10:22:53;;;;;;;12.03;4.00;;;27.40;57.10;;;;;;4990129;28;21158;-58
2021/08/13 10:25:23;;;;;;;7.03;3.47;;;27.50;57.20;;;;;;4986377;28;20543;-59
2021/08/13 10:27:50;;;;;;;10.53;4.40;;;27.60;57.40;;;;;;4990042;28;20219;-59
2021/08/13 10:30:17;;;;;;;13.33;4.70;;;27.60;56.00;;;;;;4988952;28;20220;-59
2021/08/13 10:32:45;;;;;;;6.70;4.60;;;27.60;55.90;;;;;;4992476;28;20420;-60
2021/08/13 10:35:10;;;;;;;11.00;4.70;;;27.60;55.30;;;;;;4986406;28;20227;-60
2021/08/13 10:37:38;;;;;;;8.27;3.63;;;27.60;56.00;;;;;;4988023;28;20451;-59
2021/08/13 10:40:05;;;;;;;8.30;4.20;;;27.60;56.50;;;;;;4988741;28;20842;-58
2021/08/13 10:42:33;;;;;;;11.30;5.03;;;27.80;57.10;;;;;;4987897;28;20428;-59
2021/08/13 10:45:04;;;;;;;11.13;5.17;;;27.90;56.20;;;;;;4988777;28;20189;-60
2021/08/13 10:47:37;;;;;;;9.87;4.63;;;28.00;55.80;;;;;;4989503;28;20201;-59
2021/08/13 10:50:05;;;;;;;10.03;4.37;;;28.20;56.10;;;;;;4988305;28;20187;-59
2021/08/13 10:52:33;;;;;;;19.37;4.70;;;28.40;56.10;;;;;;4982696;28;20204;-59
2021/08/13 10:54:59;;;;;;;7.90;4.37;;;28.50;56.20;;;;;;4988052;28;20179;-59
2021/08/13 10:57:49;;;;;;;9.33;4.20;;;28.50;54.90;;;;;;4988710;28;20192;-59
2021/08/13 11:00:16;;;;;;;11.90;5.03;;;28.50;55.90;;;;;;4977808;28;20669;-58
2021/08/13 11:03:18;;;;;;;13.20;5.07;;;28.60;56.40;;;;;;4988729;28;20204;-59
2021/08/13 11:05:58;;;;;;;15.93;5.20;;;28.90;57.00;;;;;;4992507;28;20215;-59
2021/08/13 11:08:45;;;;;;;11.90;5.07;;;29.20;57.40;;;;;;4989250;28;20673;-61
2021/08/13 11:11:13;;;;;;;8.03;4.90;;;29.30;54.50;;;;;;4986311;28;20173;-61
2021/08/13 11:13:43;;;;;;;12.17;4.40;;;29.30;54.50;;;;;;4992924;28;20517;-61
2021/08/13 11:16:28;;;;;;;10.80;5.40;;;29.30;53.50;;;;;;4987077;28;20196;-61
2021/08/13 11:19:00;;;;;;;13.27;5.03;;;29.00;54.40;;;;;;4991747;28;20184;-61
2021/08/13 11:21:48;;;;;;;14.57;4.73;;;29.00;54.80;;;;;;4992630;28;20172;-61
2021/08/13 11:24:21;;;;;;;15.47;5.33;;;28.90;54.60;;;;;;4982363;28;20181;-62
2021/08/13 11:26:53;;;;;;;14.07;4.87;;;28.80;54.50;;;;;;4990087;28;20219;-61
2021/08/13 11:29:28;;;;;;;8.50;5.13;;;28.60;55.70;;;;;;5000753;28;20173;-61
2021/08/13 11:31:54;;;;;;;9.37;4.90;;;28.40;55.80;;;;;;5001834;28;20176;-61
2021/08/13 11:34:45;;;;;;;11.80;5.07;;;28.30;56.00;;;;;;5001323;28;20173;-60
2021/08/13 11:37:29;;;;;;;10.63;5.50;;;28.10;56.30;;;;;;5002213;28;20566;-61
2021/08/13 11:39:59;;;;;;;7.43;4.53;;;28.00;57.10;;;;;;4994767;28;20207;-61
2021/08/13 11:42:33;;;;;;;12.13;5.10;;;27.90;58.10;;;;;;4988930;28;20185;-60
2021/08/13 11:45:11;;;;;;;9.53;5.77;;;27.80;58.20;;;;;;4991578;28;20260;-61
2021/08/13 11:47:37;;;;;;;15.03;5.33;;;27.80;57.80;;;;;;4991628;28;20204;-61
2021/08/13 11:50:05;;;;;;;10.00;5.63;;;27.80;58.10;;;;;;4997088;28;20688;-60
2021/08/13 11:52:32;;;;;;;12.00;5.97;;;27.90;58.60;;;;;;4991880;28;20252;-61
2021/08/13 11:55:22;;;;;;;11.10;5.50;;;27.90;58.70;;;;;;4989827;28;20173;-61
2021/08/13 11:57:49;;;;;;;13.33;5.67;;;27.90;59.00;;;;;;4991911;28;20203;-62
2021/08/13 12:00:22;;;;;;;13.37;5.37;;;27.90;58.90;;;;;;4989547;28;20255;-61
2021/08/13 12:02:55;;;;;;;16.43;5.40;;;27.80;59.70;;;;;;4992018;28;20223;-60
2021/08/13 12:05:21;;;;;;;20.13;5.90;;;27.70;59.90;;;;;;4992164;28;20173;-61
2021/08/13 12:07:57;;;;;;;11.63;6.20;;;27.70;60.00;;;;;;4990581;28;20180;-59
2021/08/13 12:10:23;;;;;;;18.77;6.30;;;27.70;59.70;;;;;;4992459;28;20215;-59
2021/08/13 12:12:48;;;;;;;12.70;5.60;;;27.80;59.30;;;;;;4992498;28;20204;-60
2021/08/13 12:15:15;;;;;;;10.70;5.80;;;27.80;59.50;;;;;;4990923;28;20188;-61
2021/08/13 12:17:41;;;;;;;15.63;6.43;;;27.80;59.90;;;;;;4987289;28;20194;-63
2021/08/13 12:20:08;;;;;;;14.23;6.10;;;27.90;59.80;;;;;;4991428;28;20201;-58
2021/08/13 12:22:36;;;;;;;12.97;5.93;;;27.90;59.70;;;;;;4992636;28;20175;-61
2021/08/13 12:25:08;;;;;;;10.60;6.30;;;28.00;59.80;;;;;;4990335;28;20602;-61
2021/08/13 12:27:36;;;;;;;15.10;5.47;;;28.20;60.60;;;;;;4993030;28;20204;-61
2021/08/13 12:30:23;;;;;;;12.03;5.90;;;28.50;59.30;;;;;;4991722;28;20259;-59
2021/08/13 12:32:52;;;;;;;16.97;5.83;;;28.90;59.10;;;;;;4990520;28;20188;-58
2021/08/13 12:35:18;;;;;;;18.57;6.40;;;29.10;57.80;;;;;;4984192;28;20196;-60
2021/08/13 12:37:45;;;;;;;12.23;6.50;;;29.10;58.30;;;;;;4990723;28;21223;-61
2021/08/13 12:40:13;;;;;;;14.90;6.27;;;29.30;58.60;;;;;;4990371;28;20695;-61
2021/08/13 12:42:40;;;;;;;12.63;5.97;;;29.30;57.20;;;;;;4990872;28;20685;-58
2021/08/13 12:45:13;;;;;;;18.17;5.80;;;29.10;57.20;;;;;;4986455;28;20241;-61